Time;durP1;ratioP1;P1;durP2;ratioP2;P2;SDS_P1;SDS_P2;PMS_P1;PMS_P2;Temp;Humidity;BMP_temperature;BMP_pressure;BME280_temperature;BME280_humidity;BME280_pressure;Samples;Min_cycle;Max_cycle;Signal;HPM_P1;HPM_P2
2023/08/13 11:39:35;;;;;;;1.15;0.68;;;22.10;99.90;;;;;;5113372;28;20065;-63
2023/08/13 11:42:08;;;;;;;3.28;1.20;;;22.20;99.90;;;;;;5106376;28;20490;-63
2023/08/13 11:44:34;;;;;;;1.67;0.68;;;22.10;99.90;;;;;;5113399;28;20440;-63
2023/08/13 11:47:00;;;;;;;2.05;0.82;;;21.80;99.90;;;;;;5113275;28;20035;-63
2023/08/13 11:49:27;;;;;;;2.25;0.88;;;22.00;99.90;;;;;;5113366;28;20514;-63
2023/08/13 11:51:57;;;;;;;2.00;0.80;;;21.80;99.90;;;;;;5113262;28;20043;-63
2023/08/13 11:54:24;;;;;;;1.17;0.68;;;21.90;99.90;;;;;;5113214;28;20038;-63
2023/08/13 11:56:50;;;;;;;3.40;1.02;;;21.70;99.90;;;;;;5087606;28;20043;-63
2023/08/13 11:59:25;;;;;;;3.83;0.90;;;21.70;99.90;;;;;;5113226;28;20471;-63
2023/08/13 12:01:53;;;;;;;3.00;1.00;;;21.70;99.90;;;;;;5104658;28;20052;-63
2023/08/13 12:04:19;;;;;;;3.33;1.02;;;21.60;99.90;;;;;;5115148;28;20126;-63
2023/08/13 12:06:46;;;;;;;3.38;0.88;;;21.60;99.90;;;;;;5116862;28;20541;-65
2023/08/13 12:09:13;;;;;;;3.50;1.10;;;21.70;99.90;;;;;;5117003;28;20118;-63
2023/08/13 12:11:40;;;;;;;1.50;0.98;;;21.70;99.90;;;;;;5116652;28;20043;-63
2023/08/13 12:14:06;;;;;;;2.58;0.68;;;21.90;99.90;;;;;;5116529;28;20047;-63
2023/08/13 12:16:32;;;;;;;5.07;1.10;;;22.10;99.90;;;;;;5116846;28;20039;-63
2023/08/13 12:18:58;;;;;;;1.70;0.80;;;22.30;99.90;;;;;;5116705;28;20104;-63
2023/08/13 12:21:24;;;;;;;3.55;0.90;;;22.40;99.90;;;;;;5116431;28;20032;-63
2023/08/13 12:23:49;;;;;;;3.35;0.90;;;22.50;99.90;;;;;;5116730;28;20089;-63
2023/08/13 12:26:15;;;;;;;4.30;1.13;;;22.50;99.90;;;;;;5116721;28;20043;-63
2023/08/13 12:28:41;;;;;;;3.28;1.05;;;22.40;99.90;;;;;;5116685;28;20543;-63
2023/08/13 12:31:06;;;;;;;5.90;1.23;;;22.30;99.90;;;;;;5116675;28;20118;-63
2023/08/13 12:33:32;;;;;;;2.50;0.93;;;22.30;99.90;;;;;;5116622;28;20039;-63
2023/08/13 12:35:58;;;;;;;1.88;1.00;;;22.20;99.90;;;;;;5116421;28;20040;-63
2023/08/13 12:38:23;;;;;;;4.57;1.00;;;22.10;99.90;;;;;;5116133;28;20031;-63
2023/08/13 12:40:49;;;;;;;3.35;1.20;;;22.00;99.90;;;;;;5116097;28;20040;-63
2023/08/13 12:43:14;;;;;;;3.38;1.10;;;21.90;99.90;;;;;;5116240;28;20038;-63
2023/08/13 12:45:40;;;;;;;3.03;1.25;;;21.80;99.90;;;;;;5116304;28;20043;-63
2023/08/13 12:48:06;;;;;;;4.78;1.42;;;21.70;99.90;;;;;;5115916;28;20040;-65
2023/08/13 12:50:31;;;;;;;3.55;1.35;;;21.60;99.90;;;;;;5116175;28;20079;-65
2023/08/13 12:53:00;;;;;;;4.45;1.23;;;21.50;99.90;;;;;;5115836;28;20046;-63
2023/08/13 12:55:25;;;;;;;4.68;1.83;;;21.30;99.90;;;;;;5116025;28;20418;-63
2023/08/13 12:57:51;;;;;;;4.40;1.30;;;21.40;1.00;;;;;;5115708;28;20122;-63
2023/08/13 13:00:17;;;;;;;3.00;1.42;;;21.50;1.00;;;;;;5115808;28;20111;-63
2023/08/13 13:02:42;;;;;;;4.80;1.70;;;21.70;1.00;;;;;;5115653;28;20036;-63
2023/08/13 13:05:08;;;;;;;3.75;1.38;;;22.00;1.00;;;;;;5115807;28;20031;-63
2023/08/13 13:07:34;;;;;;;5.95;1.67;;;22.30;1.00;;;;;;5115336;28;20130;-63
2023/08/13 13:09:59;;;;;;;5.20;1.55;;;22.50;99.90;;;;;;5115727;28;20109;-63
2023/08/13 13:12:25;;;;;;;3.35;1.33;;;22.70;99.90;;;;;;5115486;28;20192;-63
2023/08/13 13:14:50;;;;;;;8.68;2.00;;;22.80;99.90;;;;;;5115554;28;20046;-63
2023/08/13 13:17:16;;;;;;;7.65;1.90;;;22.80;99.90;;;;;;5115153;28;20063;-63
2023/08/13 13:19:42;;;;;;;6.80;1.88;;;22.80;99.90;;;;;;5115517;28;20054;-63
2023/08/13 13:22:08;;;;;;;4.70;1.60;;;22.80;99.90;;;;;;5109786;28;20424;-63
2023/08/13 13:24:34;;;;;;;3.95;1.83;;;22.90;99.90;;;;;;5115573;28;20081;-63
2023/08/13 13:27:00;;;;;;;8.82;1.80;;;22.60;99.90;;;;;;5115496;28;20031;-63
2023/08/13 13:29:25;;;;;;;4.38;1.90;;;22.50;99.90;;;;;;5115260;28;20038;-63
2023/08/13 13:31:51;;;;;;;4.90;1.48;;;22.60;99.90;;;;;;5115119;28;20039;-66
2023/08/13 13:34:16;;;;;;;7.55;2.00;;;22.60;99.90;;;;;;5115297;28;20122;-63
2023/08/13 13:36:42;;;;;;;6.22;1.95;;;22.70;99.90;;;;;;5115363;28;20081;-63
2023/08/13 13:39:08;;;;;;;5.03;1.52;;;22.70;99.90;;;;;;5115230;28;20031;-63
2023/08/13 13:41:33;;;;;;;8.10;1.90;;;22.70;99.90;;;;;;5115202;28;20035;-63
2023/08/13 13:43:59;;;;;;;8.95;1.85;;;22.70;99.90;;;;;;5115153;28;20038;-63
2023/08/13 13:46:24;;;;;;;6.40;1.70;;;22.70;99.90;;;;;;5111332;28;20039;-63
2023/08/13 13:48:50;;;;;;;3.65;1.63;;;22.70;99.90;;;;;;5106682;28;20384;-63
2023/08/13 13:51:16;;;;;;;3.35;1.80;;;22.80;99.90;;;;;;5115080;28;20043;-63
2023/08/13 13:53:41;;;;;;;5.55;1.85;;;22.80;99.90;;;;;;5115008;28;20039;-63
2023/08/13 13:56:07;;;;;;;5.97;1.63;;;22.80;99.90;;;;;;5114923;28;20532;-63
2023/08/13 13:58:32;;;;;;;4.78;1.65;;;22.60;99.90;;;;;;5114899;28;20124;-63
2023/08/13 14:00:58;;;;;;;6.63;1.80;;;22.50;99.90;;;;;;5114829;28;20466;-63
2023/08/13 14:03:24;;;;;;;5.18;1.92;;;22.40;99.90;;;;;;5110803;28;20096;-63
2023/08/13 14:05:53;;;;;;;6.50;1.50;;;22.30;99.90;;;;;;5114379;28;20055;-63
2023/08/13 14:08:19;;;;;;;3.30;1.52;;;22.20;99.90;;;;;;5114678;28;20046;-63
2023/08/13 14:10:44;;;;;;;6.38;1.70;;;22.10;99.90;;;;;;5114628;28;20498;-63
2023/08/13 14:13:10;;;;;;;6.30;1.67;;;22.10;99.90;;;;;;5114556;28;20040;-63
2023/08/13 14:15:36;;;;;;;4.65;2.20;;;21.90;99.90;;;;;;5114434;28;20071;-64
2023/08/13 14:18:01;;;;;;;6.18;2.03;;;21.80;99.90;;;;;;5107439;28;20585;-63
2023/08/13 14:20:27;;;;;;;4.45;1.80;;;21.70;99.90;;;;;;5114524;28;20067;-63
2023/08/13 14:22:52;;;;;;;4.85;1.90;;;21.70;99.90;;;;;;5114162;28;20097;-63
2023/08/13 14:25:18;;;;;;;6.35;1.75;;;21.60;99.90;;;;;;5114411;28;20501;-63
2023/08/13 14:27:44;;;;;;;3.55;1.35;;;21.90;99.90;;;;;;5113532;28;20043;-64
2023/08/13 14:30:10;;;;;;;6.25;1.90;;;21.90;99.90;;;;;;5114275;28;20458;-63
2023/08/13 14:32:36;;;;;;;7.93;2.05;;;22.00;99.90;;;;;;5114243;28;20039;-63
2023/08/13 14:35:01;;;;;;;7.00;2.00;;;22.20;99.90;;;;;;5114106;28;20450;-63
2023/08/13 14:37:27;;;;;;;5.50;1.50;;;22.40;99.90;;;;;;5111031;28;20051;-63
2023/08/13 14:39:53;;;;;;;8.63;2.28;;;22.70;99.90;;;;;;5114199;28;20039;-65
2023/08/13 14:42:19;;;;;;;5.20;1.90;;;22.60;99.90;;;;;;5109363;28;20043;-65
2023/08/13 14:44:44;;;;;;;11.70;2.55;;;22.50;99.90;;;;;;5114070;28;20046;-66
2023/08/13 14:47:10;;;;;;;8.13;1.88;;;22.10;99.90;;;;;;5114038;28;20114;-66
2023/08/13 14:49:36;;;;;;;5.50;1.88;;;22.50;99.90;;;;;;5113949;28;20044;-66
2023/08/13 14:52:01;;;;;;;5.35;1.48;;;22.40;99.90;;;;;;5113853;28;20039;-65
2023/08/13 14:54:27;;;;;;;3.63;1.80;;;22.40;99.90;;;;;;5113812;28;20086;-66
2023/08/13 14:56:52;;;;;;;5.35;1.67;;;22.40;99.90;;;;;;5113868;28;20058;-67
2023/08/13 14:59:18;;;;;;;5.78;1.85;;;22.20;99.90;;;;;;5113836;28;20032;-65
2023/08/13 15:01:46;;;;;;;6.60;2.08;;;22.30;99.90;;;;;;5113773;28;20028;-65
2023/08/13 15:04:12;;;;;;;7.50;1.70;;;22.30;99.90;;;;;;5113502;28;20070;-65
2023/08/13 15:06:38;;;;;;;7.22;1.92;;;22.20;99.90;;;;;;5113369;28;20047;-66
2023/08/13 15:09:04;;;;;;;3.15;1.80;;;22.30;99.90;;;;;;5113640;28;20534;-65
2023/08/13 15:11:29;;;;;;;5.40;2.05;;;22.30;99.90;;;;;;5113437;28;20039;-65
2023/08/13 15:13:55;;;;;;;7.05;1.75;;;22.40;99.90;;;;;;5113635;28;20118;-65
2023/08/13 15:16:20;;;;;;;4.70;1.90;;;22.40;99.90;;;;;;5113565;28;20044;-66
2023/08/13 15:18:46;;;;;;;7.00;2.00;;;22.60;99.90;;;;;;5113636;28;20040;-65
2023/08/13 15:21:12;;;;;;;5.03;1.55;;;22.70;99.90;;;;;;5113341;28;20515;-65
2023/08/13 15:23:37;;;;;;;8.07;1.83;;;23.00;99.90;;;;;;5113507;28;20038;-65
2023/08/13 15:26:03;;;;;;;6.00;1.63;;;23.20;99.90;;;;;;5113513;28;20043;-66
2023/08/13 15:28:28;;;;;;;5.38;1.80;;;23.20;99.90;;;;;;5113199;28;20039;-66
2023/08/13 15:30:56;;;;;;;10.25;2.08;;;23.20;99.90;;;;;;5113151;28;20051;-65
2023/08/13 15:33:23;;;;;;;4.50;1.60;;;23.20;99.90;;;;;;5109237;28;20100;-66
2023/08/13 15:35:51;;;;;;;3.53;1.40;;;23.10;99.90;;;;;;5113347;28;20039;-65
2023/08/13 15:38:17;;;;;;;4.70;2.13;;;22.90;99.90;;;;;;5113513;28;20035;-66
2023/08/13 15:40:43;;;;;;;5.18;1.77;;;22.80;99.90;;;;;;5117593;28;20471;-66
2023/08/13 15:43:09;;;;;;;8.88;2.08;;;22.70;99.90;;;;;;5117512;28;20027;-66
2023/08/13 15:45:34;;;;;;;8.18;2.20;;;22.60;99.90;;;;;;5115123;28;20061;-66
2023/08/13 15:48:00;;;;;;;5.03;1.50;;;22.50;99.90;;;;;;5117143;28;20484;-65
2023/08/13 15:50:26;;;;;;;5.55;1.70;;;22.50;99.90;;;;;;5117556;28;20039;-65
2023/08/13 15:52:52;;;;;;;6.10;1.88;;;22.40;99.90;;;;;;5117324;28;20161;-65
2023/08/13 15:55:18;;;;;;;7.75;1.80;;;22.40;99.90;;;;;;5117250;28;20040;-65
2023/08/13 15:57:44;;;;;;;3.92;1.40;;;22.30;99.90;;;;;;5117242;28;20055;-66
2023/08/13 16:00:11;;;;;;;5.53;2.13;;;22.40;99.90;;;;;;5117136;28;20166;-65
2023/08/13 16:02:37;;;;;;;6.88;1.65;;;22.40;99.90;;;;;;5116942;28;20050;-65
2023/08/13 16:05:02;;;;;;;4.63;2.00;;;22.50;99.90;;;;;;5116953;28;20036;-65
2023/08/13 16:07:28;;;;;;;4.88;1.88;;;22.40;99.90;;;;;;5116609;28;20058;-65
2023/08/13 16:09:53;;;;;;;6.03;1.70;;;22.40;99.90;;;;;;5116858;28;20047;-65
2023/08/13 16:12:19;;;;;;;3.13;1.40;;;22.30;99.90;;;;;;5116875;28;20122;-65
2023/08/13 16:14:45;;;;;;;5.82;1.52;;;22.20;99.90;;;;;;5116745;28;20092;-66
2023/08/13 16:17:10;;;;;;;6.97;1.80;;;22.10;99.90;;;;;;5116772;28;20114;-66
2023/08/13 16:19:37;;;;;;;7.97;2.00;;;;;;;;;;5116772;28;20047;-66
2023/08/13 16:22:03;;;;;;;6.63;1.83;;;;;;;;;;5110211;28;20394;-66
2023/08/13 16:24:29;;;;;;;5.10;1.95;;;22.30;99.90;;;;;;5116582;28;20088;-66
2023/08/13 16:26:55;;;;;;;4.55;1.60;;;22.70;1.00;;;;;;5116549;28;20475;-65
2023/08/13 16:29:20;;;;;;;9.13;1.80;;;22.00;99.90;;;;;;5116523;28;20482;-65
2023/08/13 16:31:46;;;;;;;5.68;1.92;;;22.10;1.00;;;;;;5107627;28;20089;-66
2023/08/13 16:34:11;;;;;;;5.63;1.77;;;22.30;99.90;;;;;;5116341;28;20122;-66
2023/08/13 16:36:38;;;;;;;5.65;2.20;;;22.40;1.00;;;;;;5116312;28;20108;-66
2023/08/13 16:39:04;;;;;;;4.97;1.55;;;22.10;1.00;;;;;;5116338;28;20044;-66
2023/08/13 16:41:30;;;;;;;6.13;1.60;;;21.90;99.90;;;;;;5116142;28;20486;-66
2023/08/13 16:43:55;;;;;;;9.45;2.58;;;22.10;1.00;;;;;;5116233;28;20035;-66
2023/08/13 16:46:21;;;;;;;6.88;2.05;;;22.50;99.90;;;;;;5111923;28;20046;-66
2023/08/13 16:48:48;;;;;;;7.57;1.50;;;22.00;1.00;;;;;;5107113;28;20487;-66
2023/08/13 16:51:22;;;;;;;6.22;1.60;;;22.20;1.00;;;;;;5113815;28;20054;-64
2023/08/13 16:53:47;;;;;;;7.75;1.80;;;21.70;1.00;;;;;;5114566;28;20504;-64
2023/08/13 16:56:13;;;;;;;9.25;1.88;;;22.00;1.00;;;;;;5115986;28;20232;-64
2023/08/13 16:58:38;;;;;;;7.93;1.98;;;21.70;1.00;;;;;;5115669;28;20391;-64
2023/08/13 17:01:04;;;;;;;5.50;1.95;;;21.50;1.00;;;;;;5116021;28;20067;-67
2023/08/13 17:03:30;;;;;;;8.05;1.90;;;21.60;1.00;;;;;;5115872;28;20040;-66
2023/08/13 17:05:56;;;;;;;4.85;1.50;;;21.10;84.10;;;;;;5115608;28;20052;-66
2023/08/13 17:08:22;;;;;;;7.97;2.00;;;21.30;99.90;;;;;;5111564;28;20093;-66
2023/08/13 17:10:47;;;;;;;5.97;1.52;;;21.30;99.90;;;;;;5115743;28;20048;-66
2023/08/13 17:13:13;;;;;;;9.75;1.73;;;21.20;99.90;;;;;;5115791;28;20490;-66
2023/08/13 17:15:39;;;;;;;5.20;1.98;;;21.20;99.90;;;;;;5115701;28;20474;-66
2023/08/13 17:18:04;;;;;;;6.35;1.67;;;21.10;99.90;;;;;;5109442;28;20084;-66
2023/08/13 17:20:30;;;;;;;5.82;1.58;;;21.10;22.20;;;;;;5115659;28;20036;-66
2023/08/13 17:22:56;;;;;;;7.68;1.50;;;21.10;99.90;;;;;;5115591;28;20440;-66
2023/08/13 17:25:22;;;;;;;6.55;2.33;;;21.00;99.90;;;;;;5115548;28;20036;-66
2023/08/13 17:27:47;;;;;;;7.97;2.80;;;20.90;99.90;;;;;;5115248;28;20474;-64
2023/08/13 17:30:13;;;;;;;10.93;3.15;;;20.80;1.00;;;;;;5115588;28;20470;-65
2023/08/13 17:32:39;;;;;;;7.75;2.60;;;20.40;74.30;;;;;;5115463;28;20125;-65
2023/08/13 17:35:05;;;;;;;9.23;2.53;;;;;;;;;;5115262;28;20480;-66
2023/08/13 17:37:31;;;;;;;5.30;2.05;;;19.30;57.80;;;;;;5115343;28;20043;-65
2023/08/13 17:39:56;;;;;;;7.65;2.35;;;19.00;40.80;;;;;;5115309;28;20031;-65
2023/08/13 17:42:23;;;;;;;3.65;1.98;;;18.80;36.40;;;;;;5115017;28;20039;-67
2023/08/13 17:44:50;;;;;;;4.20;1.92;;;18.70;69.80;;;;;;5115234;28;20066;-65
2023/08/13 17:47:15;;;;;;;4.22;1.88;;;18.60;92.70;;;;;;5115216;28;20171;-65
2023/08/13 17:49:41;;;;;;;6.47;2.40;;;18.50;97.90;;;;;;5114791;28;20043;-65
2023/08/13 17:52:06;;;;;;;6.25;2.47;;;18.50;99.90;;;;;;5115050;28;20038;-65
2023/08/13 17:54:32;;;;;;;6.97;2.75;;;18.90;99.90;;;;;;5114751;28;20036;-67
2023/08/13 17:56:58;;;;;;;6.07;2.50;;;18.40;99.90;;;;;;5114693;28;20046;-65
2023/08/13 17:59:23;;;;;;;6.32;2.60;;;18.30;99.90;;;;;;5114936;28;20023;-65
2023/08/13 18:01:51;;;;;;;7.43;2.42;;;18.20;99.90;;;;;;5114745;28;20056;-65
2023/08/13 18:04:16;;;;;;;8.27;2.42;;;18.30;99.90;;;;;;5114765;28;20092;-65
2023/08/13 18:06:43;;;;;;;6.95;2.95;;;18.90;99.90;;;;;;5114329;28;20048;-65
2023/08/13 18:09:10;;;;;;;5.40;2.70;;;18.30;99.90;;;;;;5114702;28;20547;-65
2023/08/13 18:11:35;;;;;;;9.15;3.20;;;18.20;99.90;;;;;;5114715;28;20524;-66
2023/08/13 18:14:01;;;;;;;7.10;3.45;;;18.20;99.90;;;;;;5114535;28;20043;-65
2023/08/13 18:16:27;;;;;;;7.13;2.70;;;18.20;99.90;;;;;;5114457;28;20510;-65
2023/08/13 18:18:53;;;;;;;8.68;3.25;;;18.50;99.90;;;;;;5114493;28;20043;-65
2023/08/13 18:21:18;;;;;;;6.75;2.95;;;18.20;99.90;;;;;;5114472;28;20470;-65
2023/08/13 18:23:44;;;;;;;8.23;3.38;;;18.70;99.90;;;;;;5114372;28;20039;-65
2023/08/13 18:26:09;;;;;;;7.22;2.92;;;18.30;99.90;;;;;;5108401;28;20040;-65
2023/08/13 18:28:35;;;;;;;5.95;3.00;;;18.10;99.90;;;;;;5114343;28;20112;-65
2023/08/13 18:31:00;;;;;;;7.50;3.10;;;18.10;99.90;;;;;;5114266;28;20046;-65
2023/08/13 18:33:26;;;;;;;4.22;2.92;;;18.10;99.90;;;;;;5114192;28;20099;-65
2023/08/13 18:35:53;;;;;;;7.30;2.80;;;18.00;99.90;;;;;;5113796;28;20062;-65
2023/08/13 18:38:19;;;;;;;5.78;2.80;;;18.00;99.90;;;;;;5113845;28;20039;-65
2023/08/13 18:40:45;;;;;;;6.10;3.10;;;18.70;99.90;;;;;;5114026;28;20040;-65
2023/08/13 18:43:10;;;;;;;6.00;3.25;;;18.00;99.90;;;;;;5114041;28;20127;-65
2023/08/13 18:45:36;;;;;;;6.35;2.80;;;18.00;99.90;;;;;;5114002;28;20045;-65
2023/08/13 18:48:02;;;;;;;8.60;2.90;;;18.00;99.90;;;;;;5113910;28;20376;-65
2023/08/13 18:50:28;;;;;;;6.15;2.50;;;17.90;99.90;;;;;;5113926;28;20061;-65
2023/08/13 18:52:55;;;;;;;4.68;3.13;;;18.00;99.90;;;;;;5112664;28;20115;-65
2023/08/13 18:55:21;;;;;;;9.85;3.30;;;17.90;99.90;;;;;;5113703;28;20070;-65
2023/08/13 18:57:47;;;;;;;6.40;2.90;;;17.90;99.90;;;;;;5095572;28;20035;-65
2023/08/13 19:00:13;;;;;;;7.85;3.38;;;17.90;99.90;;;;;;5113551;28;20031;-65
2023/08/13 19:02:39;;;;;;;5.10;3.20;;;17.90;99.90;;;;;;5113469;28;20036;-65
2023/08/13 19:05:05;;;;;;;6.82;3.58;;;17.80;99.90;;;;;;5113466;28;20035;-65
2023/08/13 19:07:31;;;;;;;7.30;3.67;;;17.80;99.90;;;;;;5113340;28;20059;-65
2023/08/13 19:09:57;;;;;;;7.72;3.10;;;17.70;99.90;;;;;;5113678;28;20584;-65
2023/08/13 19:12:22;;;;;;;6.35;2.70;;;18.00;99.90;;;;;;5112485;28;20123;-65
2023/08/13 19:14:51;;;;;;;5.47;3.00;;;17.70;99.90;;;;;;5112734;28;20099;-65
2023/08/13 19:17:17;;;;;;;6.63;2.85;;;17.30;99.90;;;;;;5113630;28;20031;-65
2023/08/13 19:19:42;;;;;;;6.30;2.85;;;17.60;99.90;;;;;;5112385;28;20027;-65
2023/08/13 19:22:08;;;;;;;6.57;3.55;;;17.70;99.90;;;;;;5113643;28;20142;-65
2023/08/13 19:24:33;;;;;;;6.53;3.10;;;17.60;99.90;;;;;;5113506;28;20038;-65
2023/08/13 19:26:59;;;;;;;7.85;3.75;;;18.00;99.90;;;;;;5113464;28;20040;-65
2023/08/13 19:29:25;;;;;;;6.50;3.25;;;17.50;99.90;;;;;;5113139;28;20038;-65
2023/08/13 19:31:51;;;;;;;6.18;3.25;;;17.60;99.90;;;;;;5111954;28;20090;-65
2023/08/13 19:34:16;;;;;;;5.35;3.22;;;17.90;99.90;;;;;;5113429;28;20056;-65
2023/08/13 19:36:42;;;;;;;6.78;3.22;;;17.60;99.90;;;;;;5113424;28;20035;-66
2023/08/13 19:39:08;;;;;;;8.73;3.25;;;17.40;99.90;;;;;;5113042;28;20479;-65
2023/08/13 19:41:34;;;;;;;4.85;2.78;;;17.70;99.90;;;;;;5113341;28;20118;-65
2023/08/13 19:43:59;;;;;;;6.90;3.08;;;18.00;99.90;;;;;;5112122;28;20459;-65
2023/08/13 19:46:25;;;;;;;4.57;2.72;;;17.60;99.90;;;;;;5112943;28;20039;-65
2023/08/13 19:48:50;;;;;;;6.03;2.88;;;17.70;99.90;;;;;;5113281;28;20047;-65
2023/08/13 19:51:16;;;;;;;11.73;3.78;;;17.60;99.90;;;;;;5112985;28;20475;-65
2023/08/13 19:53:41;;;;;;;6.30;3.22;;;17.70;99.90;;;;;;5113230;28;20028;-65
2023/08/13 19:56:07;;;;;;;4.38;2.67;;;17.60;99.90;;;;;;5113134;28;20044;-65
2023/08/13 19:58:33;;;;;;;6.47;2.80;;;17.60;99.90;;;;;;5111679;28;20040;-65
2023/08/13 20:01:01;;;;;;;6.40;2.88;;;17.60;99.90;;;;;;5111760;28;20028;-65
2023/08/13 20:03:26;;;;;;;7.45;2.92;;;17.50;99.90;;;;;;5113204;28;20118;-65
2023/08/13 20:05:52;;;;;;;7.03;3.20;;;17.50;99.90;;;;;;5111443;28;20552;-65
2023/08/13 20:08:19;;;;;;;5.20;2.67;;;17.50;99.90;;;;;;5113098;28;20043;-65
2023/08/13 20:10:46;;;;;;;3.85;2.70;;;17.40;99.90;;;;;;5113142;28;20479;-65
2023/08/13 20:13:11;;;;;;;4.93;2.60;;;17.40;99.90;;;;;;5111472;28;20071;-65
2023/08/13 20:15:37;;;;;;;6.53;2.80;;;17.30;99.90;;;;;;5112970;28;20082;-66
2023/08/13 20:18:03;;;;;;;6.30;3.03;;;17.30;99.90;;;;;;5113031;28;20360;-65
2023/08/13 20:20:29;;;;;;;4.38;2.97;;;17.30;99.90;;;;;;5112986;28;20043;-65
2023/08/13 20:22:54;;;;;;;6.30;2.63;;;17.30;99.90;;;;;;5113125;28;20085;-63
2023/08/13 20:25:20;;;;;;;5.05;2.83;;;17.20;99.90;;;;;;5114662;28;20052;-62
2023/08/13 20:27:45;;;;;;;3.80;2.40;;;17.30;99.90;;;;;;5116650;28;20043;-63
2023/08/13 20:30:11;;;;;;;4.93;2.47;;;17.20;99.90;;;;;;5116531;28;20032;-63
2023/08/13 20:32:37;;;;;;;3.22;2.17;;;17.10;99.90;;;;;;5116690;28;20040;-65
2023/08/13 20:35:03;;;;;;;7.60;2.58;;;17.10;99.90;;;;;;5116421;28;20093;-65
2023/08/13 20:37:30;;;;;;;6.68;2.83;;;17.10;99.90;;;;;;5116582;28;20040;-65
2023/08/13 20:39:56;;;;;;;5.25;2.45;;;17.00;99.90;;;;;;5116526;28;20078;-65
2023/08/13 20:42:22;;;;;;;6.25;2.53;;;17.00;99.90;;;;;;5116125;28;20079;-65
2023/08/13 20:44:47;;;;;;;4.60;2.67;;;16.90;99.90;;;;;;5116431;28;20125;-65
2023/08/13 20:47:13;;;;;;;5.72;2.78;;;16.90;99.90;;;;;;5116071;28;20094;-65
2023/08/13 20:49:40;;;;;;;5.75;2.88;;;16.90;99.90;;;;;;5116336;28;20043;-65
2023/08/13 20:52:05;;;;;;;5.82;2.78;;;17.00;99.90;;;;;;5116227;28;20042;-67
2023/08/13 20:54:31;;;;;;;6.00;3.03;;;16.90;99.90;;;;;;5116123;28;20562;-67
2023/08/13 20:56:57;;;;;;;5.53;3.10;;;16.80;99.90;;;;;;5116177;28;20489;-65
2023/08/13 20:59:23;;;;;;;7.85;3.30;;;17.40;99.90;;;;;;5114857;28;20089;-65
2023/08/13 21:01:48;;;;;;;6.35;3.53;;;17.00;99.90;;;;;;5114721;28;20039;-65
2023/08/13 21:04:16;;;;;;;4.57;2.97;;;16.70;99.90;;;;;;5114497;28;20043;-66
2023/08/13 21:06:42;;;;;;;5.13;3.03;;;16.70;99.90;;;;;;5115712;28;20622;-66
2023/08/13 21:09:08;;;;;;;7.70;3.25;;;16.70;99.90;;;;;;5115948;28;20113;-66
2023/08/13 21:11:34;;;;;;;5.35;3.17;;;16.70;99.90;;;;;;5115902;28;20375;-67
2023/08/13 21:13:59;;;;;;;5.55;3.67;;;16.60;99.90;;;;;;5115820;28;20042;-65
2023/08/13 21:16:25;;;;;;;6.15;3.20;;;16.60;99.90;;;;;;5115348;28;20044;-65
2023/08/13 21:18:50;;;;;;;3.63;2.65;;;16.50;99.90;;;;;;5115703;28;20043;-65
2023/08/13 21:21:16;;;;;;;5.85;3.08;;;16.50;99.90;;;;;;5115628;28;20088;-65
2023/08/13 21:23:42;;;;;;;5.45;3.30;;;16.50;99.90;;;;;;5114171;28;20035;-66
2023/08/13 21:26:08;;;;;;;6.07;3.47;;;16.50;99.90;;;;;;5115592;28;20380;-66
2023/08/13 21:28:33;;;;;;;5.53;3.05;;;16.50;99.90;;;;;;5114079;28;20119;-66
2023/08/13 21:30:59;;;;;;;6.53;3.53;;;16.40;99.90;;;;;;5114246;28;20437;-66
2023/08/13 21:33:24;;;;;;;5.10;3.55;;;16.40;99.90;;;;;;5115184;28;20479;-65
2023/08/13 21:35:50;;;;;;;8.43;3.50;;;16.40;99.90;;;;;;5115228;28;20036;-66
2023/08/13 21:38:16;;;;;;;6.03;3.25;;;16.30;99.90;;;;;;5114847;28;20032;-66
2023/08/13 21:40:41;;;;;;;5.30;2.95;;;16.30;99.90;;;;;;5115306;28;20042;-66
2023/08/13 21:43:07;;;;;;;5.78;3.42;;;16.30;99.90;;;;;;5115270;28;20032;-66
2023/08/13 21:45:32;;;;;;;4.45;3.10;;;16.30;99.90;;;;;;5115253;28;20042;-64
2023/08/13 21:47:58;;;;;;;5.15;2.72;;;16.20;99.90;;;;;;5115104;28;20071;-64
2023/08/13 21:50:24;;;;;;;7.65;3.05;;;16.20;99.90;;;;;;5115107;28;20486;-63
2023/08/13 21:52:49;;;;;;;4.65;2.72;;;16.20;99.90;;;;;;5115085;28;20034;-66
2023/08/13 21:55:15;;;;;;;5.82;2.95;;;16.20;99.90;;;;;;5114945;28;20078;-67
2023/08/13 21:57:41;;;;;;;3.67;2.95;;;16.20;99.90;;;;;;5114965;28;20050;-63
2023/08/13 22:00:13;;;;;;;6.38;2.95;;;16.10;99.90;;;;;;5114871;28;20031;-65
2023/08/13 22:02:39;;;;;;;5.50;3.08;;;16.10;99.90;;;;;;5114856;28;20169;-63
2023/08/13 22:05:05;;;;;;;5.32;3.03;;;16.10;99.90;;;;;;5114782;28;20427;-66
2023/08/13 22:07:30;;;;;;;3.92;2.72;;;16.10;99.90;;;;;;5114360;28;20139;-64
2023/08/13 22:09:56;;;;;;;6.60;3.00;;;16.00;99.90;;;;;;5113155;28;20043;-63
2023/08/13 22:12:22;;;;;;;4.75;3.15;;;16.00;99.90;;;;;;5114637;28;20046;-63
2023/08/13 22:14:47;;;;;;;5.20;3.05;;;16.00;99.90;;;;;;5114542;28;20528;-63
2023/08/13 22:17:13;;;;;;;5.25;2.83;;;16.00;99.90;;;;;;5114558;28;20032;-65
2023/08/13 22:19:50;;;;;;;3.60;2.72;;;15.90;99.90;;;;;;5114486;28;20085;-63
2023/08/13 22:22:16;;;;;;;6.35;3.00;;;16.00;99.90;;;;;;5114175;28;20031;-63
2023/08/13 22:24:42;;;;;;;5.40;2.42;;;15.90;99.90;;;;;;5114423;28;20152;-63
2023/08/13 22:27:08;;;;;;;4.05;2.70;;;15.90;99.90;;;;;;5114376;28;20457;-63
2023/08/13 22:29:34;;;;;;;4.65;3.13;;;15.80;99.90;;;;;;5112719;28;20097;-63
2023/08/13 22:31:59;;;;;;;5.30;2.92;;;16.00;99.90;;;;;;5113027;28;20035;-63
2023/08/13 22:34:25;;;;;;;3.67;2.80;;;15.80;99.90;;;;;;5114224;28;20119;-65
2023/08/13 22:36:51;;;;;;;4.25;2.75;;;15.90;99.90;;;;;;5114170;28;20471;-65
2023/08/13 22:39:16;;;;;;;3.80;3.05;;;15.70;99.90;;;;;;5114163;28;20063;-65
2023/08/13 22:41:42;;;;;;;4.65;2.75;;;15.80;99.90;;;;;;5114384;28;20478;-65
2023/08/13 22:44:07;;;;;;;3.90;2.75;;;15.70;99.90;;;;;;5112686;28;20039;-65
2023/08/13 22:46:33;;;;;;;4.40;2.97;;;15.70;99.90;;;;;;5114005;28;20043;-65
2023/08/13 22:48:59;;;;;;;5.22;3.10;;;15.70;99.90;;;;;;5113232;28;20063;-65
2023/08/13 22:51:25;;;;;;;3.72;2.58;;;15.60;99.90;;;;;;5113669;28;20471;-65
2023/08/13 22:53:55;;;;;;;5.35;2.90;;;15.80;99.90;;;;;;5114089;28;20047;-63
2023/08/13 22:56:22;;;;;;;4.85;3.38;;;15.50;99.90;;;;;;5113897;28;20101;-65
2023/08/13 22:58:47;;;;;;;6.47;2.80;;;15.50;99.90;;;;;;5113810;28;20075;-65
2023/08/13 23:01:13;;;;;;;3.97;2.95;;;15.50;99.90;;;;;;5113845;28;20139;-65
2023/08/13 23:03:38;;;;;;;4.07;2.95;;;15.50;99.90;;;;;;5112495;28;20114;-66
2023/08/13 23:06:04;;;;;;;3.80;3.05;;;15.50;99.90;;;;;;5113677;28;20058;-65
2023/08/13 23:08:30;;;;;;;4.25;2.83;;;15.40;99.90;;;;;;5113796;28;20055;-65
2023/08/13 23:10:55;;;;;;;6.93;2.95;;;16.00;99.90;;;;;;5112171;28;20047;-65
2023/08/13 23:13:21;;;;;;;4.10;3.13;;;15.40;99.90;;;;;;5113611;28;20478;-65
2023/08/13 23:15:46;;;;;;;5.43;3.08;;;15.40;99.90;;;;;;5113659;28;20532;-65
2023/08/13 23:18:12;;;;;;;4.90;3.05;;;15.40;99.90;;;;;;5113271;28;20467;-65
2023/08/13 23:20:38;;;;;;;5.18;3.35;;;15.70;99.90;;;;;;5113644;28;20041;-65
2023/08/13 23:23:04;;;;;;;7.63;3.40;;;15.40;99.90;;;;;;5113579;28;20042;-65
2023/08/13 23:25:30;;;;;;;5.30;3.83;;;15.40;99.90;;;;;;5113612;28;20043;-63
2023/08/13 23:27:55;;;;;;;5.93;3.63;;;15.50;99.90;;;;;;5113437;28;20040;-63
2023/08/13 23:30:21;;;;;;;6.43;3.05;;;15.50;99.90;;;;;;5113163;28;20079;-63
2023/08/13 23:32:47;;;;;;;5.93;3.97;;;15.60;99.90;;;;;;5113438;28;20032;-63
2023/08/13 23:35:13;;;;;;;5.68;3.58;;;15.40;99.90;;;;;;5112092;28;20043;-63
2023/08/13 23:37:38;;;;;;;5.25;3.30;;;15.30;99.90;;;;;;5112107;28;20110;-63
2023/08/13 23:40:05;;;;;;;5.85;3.72;;;15.30;99.90;;;;;;5113341;28;20105;-63
2023/08/13 23:42:30;;;;;;;6.50;3.20;;;15.30;99.90;;;;;;5113298;28;20040;-63
2023/08/13 23:44:56;;;;;;;5.60;3.45;;;15.30;99.90;;;;;;5112005;28;20479;-63
2023/08/13 23:47:21;;;;;;;7.95;3.22;;;15.40;99.90;;;;;;5113321;28;20153;-63
2023/08/13 23:49:47;;;;;;;5.28;3.45;;;15.30;99.90;;;;;;5113328;28;20039;-63
2023/08/13 23:52:13;;;;;;;4.13;3.20;;;15.30;99.90;;;;;;5113261;28;20042;-63
2023/08/13 23:54:38;;;;;;;8.95;4.00;;;15.20;99.90;;;;;;5113145;28;20092;-63
2023/08/13 23:57:04;;;;;;;6.35;3.75;;;15.20;99.90;;;;;;5113168;28;20492;-62
2023/08/13 23:59:29;;;;;;;5.00;3.55;;;15.20;99.90;;;;;;5112348;28;20100;-63
